createdAt,value
2023-03-06T00:00:32.483Z,36.76
2023-03-06T00:02:59.313Z,36.98
2023-03-06T00:05:27.063Z,37.43
2023-03-06T00:07:53.833Z,37.58
2023-03-06T00:10:23.790Z,38.61
2023-03-06T00:12:56.558Z,39.24
2023-03-06T00:15:24.830Z,38.53
2023-03-06T00:17:52.229Z,40.74
2023-03-06T00:20:19.889Z,41.77
2023-03-06T00:22:46.910Z,40.78
2023-03-06T00:25:16.993Z,41.67
2023-03-06T00:27:44.138Z,41.39
2023-03-06T00:30:16.715Z,41.41
2023-03-06T00:32:43.866Z,41.17
2023-03-06T00:35:12.188Z,42.21
2023-03-06T00:37:44.121Z,42.52
2023-03-06T00:40:16.419Z,43.02
2023-03-06T00:42:43.483Z,42.40
2023-03-06T00:45:11.099Z,41.54
2023-03-06T00:47:38.068Z,42.26
2023-03-06T00:50:05.753Z,41.50
2023-03-06T00:52:32.684Z,41.88
2023-03-06T00:54:59.529Z,40.99
2023-03-06T00:57:26.154Z,42.06
2023-03-06T00:59:53.232Z,43.59
2023-03-06T01:02:20.058Z,42.55
2023-03-06T01:04:47.026Z,42.18
2023-03-06T01:07:13.670Z,42.77
2023-03-06T01:09:41.424Z,43.29
2023-03-06T01:12:08.556Z,43.16
2023-03-06T01:14:35.440Z,42.73
2023-03-06T01:17:02.115Z,43.82
2023-03-06T01:19:28.772Z,44.07
2023-03-06T01:21:57.718Z,44.61
2023-03-06T01:24:24.561Z,44.73
2023-03-06T01:26:51.584Z,44.19
2023-03-06T01:29:18.352Z,44.32
2023-03-06T01:31:46.190Z,43.37
2023-03-06T01:34:12.964Z,43.61
2023-03-06T01:36:39.817Z,42.97
2023-03-06T01:39:06.869Z,43.66
2023-03-06T01:41:33.457Z,42.96
2023-03-06T01:44:00.169Z,43.41
2023-03-06T01:46:32.196Z,43.70
2023-03-06T01:49:25.552Z,42.27
2023-03-06T01:51:55.446Z,42.25
2023-03-06T01:54:35.641Z,41.87
2023-03-06T01:57:36.091Z,43.24
2023-03-06T02:00:14.201Z,43.33
2023-03-06T02:03:09.967Z,42.72
2023-03-06T02:05:37.635Z,42.34
2023-03-06T02:08:06.789Z,42.17
2023-03-06T02:10:34.256Z,41.07
2023-03-06T02:13:01.543Z,41.51
2023-03-06T02:15:30.218Z,41.75
2023-03-06T02:17:57.283Z,42.92
2023-03-06T02:20:27.200Z,42.34
2023-03-06T02:23:29.475Z,42.06
2023-03-06T02:25:58.598Z,43.82
2023-03-06T02:28:25.400Z,42.85
2023-03-06T02:30:54.920Z,43.17
2023-03-06T02:33:24.893Z,43.49
2023-03-06T02:36:02.404Z,44.65
2023-03-06T02:38:42.605Z,43.77
2023-03-06T02:41:09.403Z,43.99
2023-03-06T02:43:39.687Z,44.18
2023-03-06T02:46:07.012Z,44.83
2023-03-06T02:48:33.694Z,43.70
2023-03-06T02:51:00.454Z,44.83
2023-03-06T02:53:27.450Z,43.56
2023-03-06T02:55:54.557Z,44.02
2023-03-06T02:58:21.316Z,43.29
2023-03-06T03:00:49.657Z,43.06
2023-03-06T03:03:17.516Z,43.53
2023-03-06T03:05:44.223Z,42.83
2023-03-06T03:08:10.956Z,44.15
2023-03-06T03:10:37.760Z,43.89
2023-03-06T03:13:04.980Z,43.71
2023-03-06T03:15:31.928Z,44.69
2023-03-06T03:17:58.624Z,44.01
2023-03-06T03:20:25.368Z,43.86
2023-03-06T03:22:54.555Z,43.27
2023-03-06T03:25:23.680Z,44.52
2023-03-06T03:27:50.813Z,44.53
2023-03-06T03:30:17.861Z,43.49
2023-03-06T03:32:44.497Z,42.90
2023-03-06T03:35:11.855Z,44.59
2023-03-06T03:37:38.586Z,43.97
2023-03-06T03:40:06.085Z,44.10
2023-03-06T03:42:32.999Z,44.18
2023-03-06T03:44:59.697Z,44.06
2023-03-06T03:47:26.361Z,44.25
2023-03-06T03:49:53.100Z,45.18
2023-03-06T03:52:19.829Z,45.75
2023-03-06T03:54:46.507Z,45.09
2023-03-06T03:57:13.160Z,44.27
2023-03-06T03:59:39.781Z,45.21
2023-03-06T04:02:06.454Z,44.26
2023-03-06T04:04:33.143Z,45.06
2023-03-06T04:06:59.785Z,44.58
2023-03-06T04:09:26.420Z,44.82
2023-03-06T04:11:53.061Z,44.66
2023-03-06T04:14:19.716Z,45.46
2023-03-06T04:16:46.371Z,45.16
2023-03-06T04:19:13.003Z,44.73
2023-03-06T04:21:39.709Z,44.75
2023-03-06T04:24:06.707Z,44.01
2023-03-06T04:26:33.377Z,44.63
2023-03-06T04:29:00.109Z,44.59
2023-03-06T04:31:26.865Z,44.12
2023-03-06T04:33:53.564Z,44.58
2023-03-06T04:36:38.485Z,44.86
2023-03-06T04:39:05.177Z,45.11
2023-03-06T04:41:31.823Z,44.80
2023-03-06T04:43:58.752Z,44.21
2023-03-06T04:46:26.545Z,44.28
2023-03-06T04:48:53.190Z,45.40
2023-03-06T04:51:20.086Z,45.13
2023-03-06T04:53:46.875Z,44.52
2023-03-06T04:56:13.582Z,44.19
2023-03-06T04:58:40.321Z,44.71
2023-03-06T05:01:07.185Z,44.54
2023-03-06T05:03:33.831Z,44.97
2023-03-06T05:06:00.529Z,45.04
2023-03-06T05:08:27.784Z,45.26
2023-03-06T05:11:00.390Z,45.24
2023-03-06T05:13:28.112Z,45.64
2023-03-06T05:15:55.258Z,45.06
2023-03-06T05:18:22.053Z,45.93
2023-03-06T05:20:48.643Z,46.53
2023-03-06T05:23:15.274Z,45.83
2023-03-06T05:25:42.246Z,45.17
2023-03-06T05:28:09.095Z,45.28
2023-03-06T05:30:36.503Z,44.47
2023-03-06T05:33:03.188Z,46.13
2023-03-06T05:35:29.986Z,45.69
2023-03-06T05:37:56.669Z,46.02
2023-03-06T05:40:23.322Z,44.98
2023-03-06T05:42:49.924Z,45.77
2023-03-06T05:45:16.534Z,46.20
2023-03-06T05:47:43.215Z,46.30
2023-03-06T05:50:10.824Z,45.99
2023-03-06T05:52:38.790Z,45.74
2023-03-06T05:55:05.967Z,44.53
2023-03-06T05:57:32.676Z,45.97
2023-03-06T05:59:59.281Z,44.90
2023-03-06T06:02:25.942Z,45.61
2023-03-06T06:04:52.578Z,45.41
2023-03-06T06:07:19.273Z,44.33
2023-03-06T06:09:45.908Z,45.69
2023-03-06T06:12:14.033Z,45.75
2023-03-06T06:14:41.752Z,45.98
2023-03-06T06:17:08.512Z,46.35
2023-03-06T06:19:37.024Z,47.23
2023-03-06T06:22:03.901Z,46.27
2023-03-06T06:24:32.065Z,46.54
2023-03-06T06:27:03.870Z,45.46
2023-03-06T06:29:31.262Z,45.48
2023-03-06T06:31:58.151Z,44.25
2023-03-06T06:34:25.846Z,44.08
2023-03-06T06:36:53.849Z,44.49
2023-03-06T06:39:22.977Z,44.09
2023-03-06T06:42:05.554Z,43.90
2023-03-06T06:44:38.049Z,43.59
2023-03-06T06:47:24.200Z,45.14
2023-03-06T06:49:53.186Z,45.00
2023-03-06T06:52:19.976Z,44.81
2023-03-06T06:54:46.770Z,43.91
2023-03-06T06:57:13.469Z,42.41
2023-03-06T06:59:40.134Z,42.51
2023-03-06T07:02:06.754Z,42.16
2023-03-06T07:04:33.565Z,42.73
2023-03-06T07:07:00.307Z,42.85
2023-03-06T07:09:27.015Z,42.14
2023-03-06T07:11:53.668Z,41.36
2023-03-06T07:14:20.284Z,40.38
2023-03-06T07:16:46.923Z,40.30
2023-03-06T07:19:14.031Z,40.37
2023-03-06T07:21:41.220Z,41.62
2023-03-06T07:24:08.329Z,41.61
2023-03-06T07:26:35.192Z,41.18
2023-03-06T07:29:03.105Z,42.05
2023-03-06T07:31:32.719Z,41.61
2023-03-06T07:34:00.194Z,39.74
2023-03-06T07:36:27.133Z,41.11
2023-03-06T07:38:53.801Z,40.98
2023-03-06T07:41:22.484Z,40.89
2023-03-06T07:43:49.940Z,41.02
2023-03-06T07:46:20.018Z,40.56
2023-03-06T07:48:46.650Z,41.21
2023-03-06T07:51:17.249Z,42.02
2023-03-06T07:53:44.432Z,42.37
2023-03-06T07:56:11.976Z,41.86
2023-03-06T07:58:41.842Z,42.63
2023-03-06T08:01:12.600Z,42.92
2023-03-06T08:03:39.670Z,41.93
2023-03-06T08:06:18.905Z,40.98
2023-03-06T08:08:47.772Z,42.34
2023-03-06T08:11:17.028Z,42.35
2023-03-06T08:13:44.740Z,42.70
2023-03-06T08:16:12.386Z,42.11
2023-03-06T08:18:39.139Z,42.53
2023-03-06T08:21:10.010Z,41.46
2023-03-06T08:23:37.328Z,43.63
2023-03-06T08:26:07.525Z,42.43
2023-03-06T08:28:35.134Z,41.97
2023-03-06T08:31:12.891Z,40.49
2023-03-06T08:33:40.813Z,39.52
2023-03-06T08:36:07.621Z,39.95
2023-03-06T08:38:34.293Z,38.89
2023-03-06T08:41:00.977Z,39.41
2023-03-06T08:43:27.780Z,38.68
2023-03-06T08:45:59.058Z,39.14
2023-03-06T08:48:26.298Z,38.73
2023-03-06T08:50:53.576Z,37.64
2023-03-06T08:53:30.453Z,38.60
2023-03-06T08:56:03.916Z,39.02
2023-03-06T08:58:34.766Z,38.23
2023-03-06T09:01:01.750Z,38.91
2023-03-06T09:03:28.587Z,41.72
2023-03-06T09:05:55.205Z,39.07
2023-03-06T09:08:21.823Z,38.97
2023-03-06T09:10:48.984Z,39.70
2023-03-06T09:13:15.720Z,38.04
2023-03-06T09:15:42.378Z,37.26
2023-03-06T09:18:09.101Z,38.24
2023-03-06T09:20:36.784Z,37.63
2023-03-06T09:23:03.573Z,37.61
2023-03-06T09:25:30.250Z,37.27
2023-03-06T09:28:10.426Z,36.18
2023-03-06T09:30:40.514Z,36.97
2023-03-06T09:33:07.265Z,37.45
2023-03-06T09:35:34.164Z,37.47
2023-03-06T09:38:00.917Z,36.77
2023-03-06T09:40:41.334Z,36.29
2023-03-06T09:43:24.637Z,37.59
2023-03-06T09:45:53.694Z,38.22
2023-03-06T09:48:27.452Z,38.21
2023-03-06T09:51:02.977Z,37.92
2023-03-06T09:53:46.211Z,37.07
2023-03-06T09:56:26.685Z,37.30
2023-03-06T09:59:13.161Z,36.47
2023-03-06T10:01:45.931Z,37.85
2023-03-06T10:04:40.599Z,36.57
2023-03-06T10:07:22.254Z,37.38
2023-03-06T10:10:02.587Z,36.55
2023-03-06T10:12:42.462Z,36.14
2023-03-06T10:15:21.531Z,35.86
2023-03-06T10:17:48.856Z,35.52
2023-03-06T10:20:16.682Z,36.13
2023-03-06T10:23:01.397Z,40.09
2023-03-06T10:25:54.829Z,55.60
2023-03-06T10:28:36.171Z,35.94
2023-03-06T10:31:18.338Z,39.62
2023-03-06T10:33:55.109Z,40.06
2023-03-06T10:36:28.224Z,39.14
2023-03-06T10:38:57.520Z,36.38
2023-03-06T10:41:31.558Z,37.15
2023-03-06T10:44:01.251Z,39.74
2023-03-06T10:46:32.165Z,36.41
2023-03-06T10:49:02.330Z,40.63
2023-03-06T10:51:31.366Z,37.20
2023-03-06T10:54:01.226Z,32.92
2023-03-06T10:56:35.445Z,36.64
2023-03-06T10:59:19.360Z,32.05
2023-03-06T11:01:55.231Z,31.47
2023-03-06T11:04:26.683Z,33.25
2023-03-06T11:07:16.384Z,31.62
2023-03-06T11:10:01.642Z,32.87
2023-03-06T11:12:35.820Z,32.40
2023-03-06T11:15:14.569Z,32.77
2023-03-06T11:17:58.255Z,34.07
2023-03-06T11:20:51.911Z,36.36
2023-03-06T11:23:34.897Z,33.46
2023-03-06T11:26:16.601Z,31.94
2023-03-06T11:29:07.890Z,32.46
2023-03-06T11:32:14.522Z,31.47
2023-03-06T11:34:59.663Z,31.33
2023-03-06T11:37:31.931Z,28.18
2023-03-06T11:40:01.255Z,28.35
2023-03-06T11:42:39.597Z,29.31
2023-03-06T11:45:24.943Z,27.76
2023-03-06T11:48:03.385Z,27.25
2023-03-06T11:50:41.684Z,26.13
2023-03-06T11:53:15.956Z,26.48
2023-03-06T11:56:00.765Z,24.60
2023-03-06T11:58:39.422Z,25.40
2023-03-06T12:01:12.186Z,26.71
2023-03-06T12:03:44.487Z,27.36
2023-03-06T12:06:22.012Z,27.92
2023-03-06T12:09:03.828Z,29.69
2023-03-06T12:11:45.848Z,27.34
2023-03-06T12:14:32.497Z,28.33
2023-03-06T12:17:05.137Z,28.33
2023-03-06T12:20:02.043Z,28.30
2023-03-06T12:22:40.060Z,27.78
2023-03-06T12:25:18.672Z,26.63
2023-03-06T12:28:06.553Z,26.26
2023-03-06T12:30:42.100Z,26.80
2023-03-06T12:33:22.656Z,26.29
2023-03-06T12:36:15.426Z,26.29
2023-03-06T12:39:00.032Z,25.55
2023-03-06T12:41:41.725Z,26.54
2023-03-06T12:44:30.334Z,26.30
2023-03-06T12:47:20.473Z,25.74
2023-03-06T12:50:07.620Z,26.24
2023-03-06T12:52:35.709Z,24.92
2023-03-06T12:55:07.445Z,25.11
2023-03-06T12:57:34.321Z,25.60
2023-03-06T13:00:01.178Z,24.99
2023-03-06T13:03:19.840Z,22.82
2023-03-06T13:06:11.574Z,25.24
2023-03-06T13:09:10.505Z,26.06
2023-03-06T13:12:08.356Z,25.31
2023-03-06T13:14:42.332Z,24.16
2023-03-06T13:17:24.358Z,22.61
2023-03-06T13:20:13.209Z,24.06
2023-03-06T13:22:43.120Z,22.02
2023-03-06T13:25:35.673Z,22.46
2023-03-06T13:28:04.870Z,22.41
2023-03-06T13:30:34.481Z,21.54
2023-03-06T13:33:01.171Z,20.95
2023-03-06T13:35:30.496Z,21.94
2023-03-06T13:37:59.231Z,21.45
2023-03-06T13:40:32.138Z,22.47
2023-03-06T13:43:07.541Z,22.68
2023-03-06T13:45:40.399Z,20.83
2023-03-06T13:48:30.295Z,21.29
2023-03-06T13:50:56.088Z,21.65
2023-03-06T13:53:51.799Z,21.50
2023-03-06T13:56:45.731Z,19.90
2023-03-06T13:59:39.362Z,18.30
2023-03-06T14:02:36.697Z,18.37
2023-03-06T14:05:12.747Z,17.19
2023-03-06T14:07:45.521Z,16.03
2023-03-06T14:10:22.325Z,15.25
2023-03-06T14:12:48.915Z,15.95
2023-03-06T14:15:41.710Z,16.14
2023-03-06T14:18:22.003Z,15.11
2023-03-06T14:20:54.566Z,14.18
2023-03-06T14:23:21.230Z,15.12
2023-03-06T14:26:12.554Z,17.09
2023-03-06T14:28:39.226Z,17.62
2023-03-06T14:31:17.901Z,15.35
2023-03-06T14:34:21.141Z,15.69
2023-03-06T14:36:50.976Z,14.42
2023-03-06T14:39:37.304Z,13.81
2023-03-06T14:42:06.893Z,16.34
2023-03-06T14:44:33.653Z,17.49
2023-03-06T14:47:22.958Z,17.80
2023-03-06T14:50:25.997Z,17.60
2023-03-06T14:53:16.230Z,17.24
2023-03-06T14:56:05.996Z,15.18
2023-03-06T14:58:38.322Z,16.30
2023-03-06T15:01:10.706Z,16.90
2023-03-06T15:03:50.811Z,16.34
2023-03-06T15:06:29.069Z,15.48
2023-03-06T15:09:19.348Z,15.75
2023-03-06T15:12:00.146Z,15.45
2023-03-06T15:14:36.899Z,14.92
2023-03-06T15:17:22.700Z,14.86
2023-03-06T15:19:52.722Z,15.23
2023-03-06T15:22:40.242Z,14.37
2023-03-06T15:25:18.798Z,14.02
2023-03-06T15:27:59.165Z,14.70
2023-03-06T15:30:36.432Z,14.04
2023-03-06T15:33:29.200Z,13.67
2023-03-06T15:35:58.834Z,13.85
2023-03-06T15:38:44.027Z,14.33
2023-03-06T15:41:24.462Z,14.87
2023-03-06T15:43:51.089Z,14.71
2023-03-06T15:46:17.761Z,13.53
2023-03-06T15:49:01.104Z,12.76
2023-03-06T15:51:32.163Z,11.88
2023-03-06T15:54:11.845Z,11.61
2023-03-06T15:56:42.577Z,13.12
2023-03-06T15:59:24.444Z,12.79
2023-03-06T16:01:52.052Z,12.37
2023-03-06T16:04:20.269Z,11.96
2023-03-06T16:06:46.884Z,11.37
2023-03-06T16:09:14.351Z,10.97
2023-03-06T16:11:44.320Z,11.30
2023-03-06T16:14:20.926Z,11.09
2023-03-06T16:16:48.618Z,10.89
2023-03-06T16:19:25.876Z,10.58
2023-03-06T16:21:53.981Z,11.09
2023-03-06T16:24:20.606Z,10.20
2023-03-06T16:26:52.564Z,10.59
2023-03-06T16:29:24.770Z,10.67
2023-03-06T16:31:52.474Z,10.66
2023-03-06T16:34:19.081Z,11.02
2023-03-06T16:36:47.238Z,11.36
2023-03-06T16:39:17.063Z,11.32
2023-03-06T16:41:43.705Z,11.16
2023-03-06T16:44:10.465Z,11.14
2023-03-06T16:46:40.220Z,11.70
2023-03-06T16:49:06.996Z,11.49
2023-03-06T16:51:33.656Z,11.07
2023-03-06T16:54:00.266Z,10.79
2023-03-06T16:56:26.923Z,10.77
2023-03-06T16:58:53.597Z,10.44
2023-03-06T17:01:20.302Z,10.16
2023-03-06T17:03:47.128Z,10.34
2023-03-06T17:06:20.819Z,9.85
2023-03-06T17:08:49.458Z,9.88
2023-03-06T17:11:17.081Z,9.59
2023-03-06T17:13:48.261Z,10.06
2023-03-06T17:16:15.841Z,9.99
2023-03-06T17:18:45.337Z,10.30
2023-03-06T17:21:14.165Z,10.13
2023-03-06T17:23:40.797Z,10.59
2023-03-06T17:26:19.105Z,10.35
2023-03-06T17:28:46.410Z,10.34
2023-03-06T17:31:17.778Z,10.80
2023-03-06T17:33:44.896Z,10.60
2023-03-06T17:36:11.901Z,10.48
2023-03-06T17:38:38.576Z,9.90
2023-03-06T17:41:07.616Z,10.86
2023-03-06T17:43:34.270Z,10.48
2023-03-06T17:46:09.956Z,10.10
2023-03-06T17:48:38.091Z,9.69
2023-03-06T17:51:05.926Z,10.12
2023-03-06T17:53:33.317Z,12.00
2023-03-06T17:55:59.935Z,13.96
2023-03-06T17:58:27.417Z,12.16
2023-03-06T18:00:54.155Z,12.60
2023-03-06T18:03:21.105Z,12.60
2023-03-06T18:06:05.254Z,14.63
2023-03-06T18:08:32.280Z,13.82
2023-03-06T18:11:03.389Z,12.98
2023-03-06T18:13:31.536Z,14.65
2023-03-06T18:15:58.414Z,16.25
2023-03-06T18:18:25.493Z,14.41
2023-03-06T18:20:52.396Z,13.34
2023-03-06T18:23:19.050Z,24.67
2023-03-06T18:25:45.696Z,20.76
2023-03-06T18:28:12.444Z,15.78
2023-03-06T18:30:40.888Z,13.83
2023-03-06T18:33:07.999Z,14.15
2023-03-06T18:35:35.400Z,22.66
2023-03-06T18:38:02.330Z,22.82
2023-03-06T18:40:28.968Z,13.26
2023-03-06T18:42:55.587Z,10.31
2023-03-06T18:45:22.231Z,13.15
2023-03-06T18:47:48.892Z,14.96
2023-03-06T18:50:15.709Z,14.56
2023-03-06T18:52:43.697Z,13.79
2023-03-06T18:55:10.635Z,14.85
2023-03-06T18:57:37.238Z,13.74
2023-03-06T19:00:05.415Z,14.32
2023-03-06T19:02:32.043Z,13.69
2023-03-06T19:04:58.811Z,13.66
2023-03-06T19:07:25.774Z,13.23
2023-03-06T19:09:55.031Z,13.24
2023-03-06T19:12:21.894Z,12.18
2023-03-06T19:14:48.623Z,11.45
2023-03-06T19:17:15.241Z,11.31
2023-03-06T19:19:41.877Z,11.79
2023-03-06T19:22:08.502Z,13.52
2023-03-06T19:24:35.181Z,12.78
2023-03-06T19:27:01.838Z,13.20
2023-03-06T19:29:30.495Z,12.20
2023-03-06T19:31:57.566Z,12.14
2023-03-06T19:34:24.260Z,11.76
2023-03-06T19:36:51.031Z,11.19
2023-03-06T19:39:17.730Z,11.65
2023-03-06T19:41:46.370Z,11.02
2023-03-06T19:44:13.022Z,11.46
2023-03-06T19:46:39.615Z,11.57
2023-03-06T19:49:06.249Z,11.27
2023-03-06T19:51:32.865Z,11.57
2023-03-06T19:53:59.587Z,11.87
2023-03-06T19:56:28.777Z,11.90
2023-03-06T19:58:56.143Z,12.05
2023-03-06T20:01:25.209Z,12.21
2023-03-06T20:03:56.802Z,12.60
2023-03-06T20:06:23.429Z,12.42
2023-03-06T20:08:50.026Z,14.79
2023-03-06T20:11:25.531Z,12.91
2023-03-06T20:13:52.787Z,14.29
2023-03-06T20:16:19.482Z,14.64
2023-03-06T20:18:46.667Z,12.86
2023-03-06T20:21:14.538Z,12.22
2023-03-06T20:23:41.598Z,11.90
2023-03-06T20:26:11.807Z,12.70
2023-03-06T20:28:39.629Z,12.16
2023-03-06T20:31:16.021Z,12.78
2023-03-06T20:33:43.540Z,12.43
2023-03-06T20:36:15.570Z,12.74
2023-03-06T20:38:43.124Z,12.91
2023-03-06T20:41:22.793Z,12.55
2023-03-06T20:43:52.578Z,12.67
2023-03-06T20:46:21.762Z,12.83
2023-03-06T20:48:50.113Z,13.32
2023-03-06T20:51:23.328Z,13.03
2023-03-06T20:53:52.542Z,12.75
2023-03-06T20:56:24.557Z,12.95
2023-03-06T20:58:52.134Z,12.88
2023-03-06T21:01:23.105Z,13.21
2023-03-06T21:03:49.823Z,13.03
2023-03-06T21:06:17.139Z,13.35
2023-03-06T21:08:43.924Z,13.34
2023-03-06T21:11:10.862Z,13.58
2023-03-06T21:13:37.820Z,14.25
2023-03-06T21:16:10.366Z,13.73
2023-03-06T21:18:37.189Z,13.88
2023-03-06T21:21:25.084Z,15.82
2023-03-06T21:23:52.073Z,15.14
2023-03-06T21:26:21.840Z,15.61
2023-03-06T21:28:49.283Z,15.51
2023-03-06T21:31:18.942Z,16.09
2023-03-06T21:33:47.491Z,16.45
2023-03-06T21:36:14.784Z,14.31
2023-03-06T21:38:41.617Z,15.68
2023-03-06T21:41:11.560Z,14.82
2023-03-06T21:43:38.752Z,15.23
2023-03-06T21:46:06.214Z,15.47
2023-03-06T21:48:33.155Z,15.97
2023-03-06T21:51:08.527Z,17.55
2023-03-06T21:53:36.076Z,15.62
2023-03-06T21:56:03.943Z,16.52
2023-03-06T21:58:31.027Z,17.21
2023-03-06T22:00:57.816Z,13.96
2023-03-06T22:03:24.617Z,13.82
2023-03-06T22:05:51.538Z,13.24
2023-03-06T22:08:19.809Z,12.99
2023-03-06T22:10:48.515Z,13.74
2023-03-06T22:13:15.451Z,13.96
2023-03-06T22:15:52.481Z,13.60
2023-03-06T22:18:19.941Z,13.80
2023-03-06T22:20:46.653Z,13.66
2023-03-06T22:23:13.446Z,13.97
2023-03-06T22:25:40.323Z,14.04
2023-03-06T22:28:07.029Z,14.47
2023-03-06T22:30:33.738Z,14.38
2023-03-06T22:33:00.369Z,14.59
2023-03-06T22:35:27.115Z,14.67
2023-03-06T22:37:53.739Z,15.00
2023-03-06T22:40:20.374Z,14.67
2023-03-06T22:42:47.013Z,14.83
2023-03-06T22:45:13.649Z,14.15
2023-03-06T22:47:40.320Z,14.19
2023-03-06T22:50:07.790Z,14.11
2023-03-06T22:52:34.436Z,14.11
2023-03-06T22:55:01.312Z,14.13
2023-03-06T22:57:27.941Z,14.30
2023-03-06T22:59:54.617Z,13.82
2023-03-06T23:02:21.561Z,13.54
2023-03-06T23:04:49.541Z,13.96
2023-03-06T23:07:16.202Z,14.15
2023-03-06T23:09:47.028Z,18.20
2023-03-06T23:12:14.025Z,14.78
2023-03-06T23:14:40.669Z,14.36
2023-03-06T23:17:07.302Z,13.93
2023-03-06T23:19:33.927Z,13.42
2023-03-06T23:22:00.600Z,13.86
2023-03-06T23:24:27.214Z,13.56
2023-03-06T23:26:53.926Z,12.81
2023-03-06T23:29:20.534Z,13.68
2023-03-06T23:31:47.137Z,12.77
2023-03-06T23:34:13.871Z,12.68
2023-03-06T23:36:40.505Z,12.61
2023-03-06T23:39:07.141Z,12.72
2023-03-06T23:41:33.813Z,12.20
2023-03-06T23:44:00.463Z,12.41
2023-03-06T23:46:27.841Z,12.74
2023-03-06T23:48:55.669Z,12.64
2023-03-06T23:51:23.183Z,12.60
2023-03-06T23:53:56.503Z,12.52
2023-03-06T23:56:25.001Z,12.61
2023-03-06T23:58:51.981Z,12.95
